createdAt,value
2023-03-14T00:05:51.341Z,6
2023-03-14T00:11:51.215Z,5
2023-03-14T00:17:51.214Z,5
2023-03-14T00:23:51.221Z,6
2023-03-14T00:29:51.250Z,7
2023-03-14T00:35:51.245Z,6
2023-03-14T00:41:51.314Z,6
2023-03-14T00:47:51.192Z,7
2023-03-14T00:53:51.184Z,6
2023-03-14T00:59:51.236Z,7
2023-03-14T01:05:51.197Z,5
2023-03-14T01:11:51.190Z,6
2023-03-14T01:17:51.217Z,6
2023-03-14T01:23:51.190Z,6
2023-03-14T01:29:51.197Z,7
2023-03-14T01:35:51.565Z,8
2023-03-14T01:41:51.192Z,7
2023-03-14T01:47:51.207Z,9
2023-03-14T01:53:51.242Z,7
2023-03-14T01:59:51.193Z,6
2023-03-14T02:05:51.229Z,6
2023-03-14T02:11:51.217Z,6
2023-03-14T02:17:51.213Z,8
2023-03-14T02:23:51.182Z,7
2023-03-14T02:29:51.227Z,7
2023-03-14T02:35:51.259Z,7
2023-03-14T02:41:51.171Z,6
2023-03-14T02:47:51.199Z,6
2023-03-14T02:53:51.182Z,10
2023-03-14T02:59:51.198Z,6
2023-03-14T03:05:51.190Z,11
2023-03-14T03:11:51.189Z,9
2023-03-14T03:17:51.194Z,7
2023-03-14T03:23:51.211Z,7
2023-03-14T03:29:51.201Z,12
2023-03-14T03:35:51.253Z,6
2023-03-14T03:41:51.362Z,7
2023-03-14T03:47:51.190Z,6
2023-03-14T03:53:51.195Z,7
2023-03-14T03:59:51.350Z,7
2023-03-14T04:05:51.426Z,5
2023-03-14T04:11:51.184Z,9
2023-03-14T04:17:51.262Z,4
2023-03-14T04:23:51.186Z,6
2023-03-14T04:29:51.184Z,5
2023-03-14T04:35:51.432Z,5
2023-03-14T04:41:51.187Z,6
2023-03-14T04:47:51.178Z,5
2023-03-14T04:53:51.225Z,6
2023-03-14T04:59:51.187Z,3
2023-03-14T05:05:51.196Z,4
2023-03-14T05:11:51.200Z,3
2023-03-14T05:17:51.447Z,3
2023-03-14T05:23:51.181Z,2
2023-03-14T05:29:51.198Z,1
2023-03-14T05:35:51.236Z,2
2023-03-14T05:41:51.204Z,2
2023-03-14T05:47:51.206Z,2
2023-03-14T05:53:51.194Z,2
2023-03-14T05:59:51.166Z,5
2023-03-14T06:05:51.193Z,4
2023-03-14T06:11:51.173Z,4
2023-03-14T06:17:51.214Z,3
2023-03-14T06:23:51.195Z,2
2023-03-14T06:29:51.179Z,2
2023-03-14T06:35:51.187Z,5
2023-03-14T06:41:51.193Z,3
2023-03-14T06:47:51.189Z,3
2023-03-14T06:53:51.181Z,1
2023-03-14T06:59:51.189Z,1
2023-03-14T07:05:51.154Z,2
2023-03-14T07:11:51.173Z,1
2023-03-14T07:17:51.263Z,1
2023-03-14T07:23:51.180Z,1
2023-03-14T07:29:51.166Z,2
2023-03-14T07:35:51.260Z,2
2023-03-14T07:41:51.163Z,1
2023-03-14T07:47:51.188Z,1
2023-03-14T07:53:51.207Z,1
2023-03-14T07:59:51.183Z,1
2023-03-14T08:05:51.177Z,2
2023-03-14T08:11:51.217Z,0
2023-03-14T08:17:51.190Z,0
2023-03-14T08:23:51.255Z,1
2023-03-14T08:29:51.241Z,1
2023-03-14T08:35:51.212Z,0
2023-03-14T08:41:51.192Z,1
2023-03-14T08:47:51.209Z,1
2023-03-14T08:53:51.171Z,1
2023-03-14T08:59:51.150Z,0
2023-03-14T09:05:51.186Z,0
2023-03-14T09:11:51.165Z,1
2023-03-14T09:18:01.465Z,0
2023-03-14T09:23:51.313Z,2
2023-03-14T09:29:51.173Z,1
2023-03-14T09:35:51.219Z,1
2023-03-14T09:41:51.270Z,1
2023-03-14T09:47:59.033Z,2
2023-03-14T09:53:51.178Z,2
2023-03-14T09:59:51.591Z,2
2023-03-14T10:05:51.172Z,3
2023-03-14T10:11:51.171Z,1
2023-03-14T10:17:51.187Z,3
2023-03-14T10:23:51.163Z,3
2023-03-14T10:29:51.172Z,3
2023-03-14T10:35:51.305Z,3
2023-03-14T10:41:51.156Z,4
2023-03-14T10:47:51.285Z,4
2023-03-14T10:53:51.200Z,4
2023-03-14T10:59:51.155Z,4
2023-03-14T11:05:51.165Z,6
2023-03-14T11:11:51.193Z,9
2023-03-14T11:17:51.156Z,8
2023-03-14T11:23:51.161Z,10
2023-03-14T11:29:51.209Z,6
2023-03-14T11:35:51.201Z,5
2023-03-14T11:41:51.150Z,5
2023-03-14T11:47:51.194Z,6
2023-03-14T11:53:51.198Z,3
2023-03-14T11:59:51.178Z,5
2023-03-14T12:05:51.317Z,5
2023-03-14T12:11:51.172Z,4
2023-03-14T12:17:51.143Z,2
2023-03-14T12:23:51.267Z,1
2023-03-14T12:29:51.153Z,3
2023-03-14T12:35:51.168Z,2
2023-03-14T12:41:51.184Z,3
2023-03-14T12:47:51.173Z,4
2023-03-14T12:53:51.150Z,4
2023-03-14T12:59:51.156Z,7
2023-03-14T13:05:51.153Z,8
2023-03-14T13:11:51.163Z,8
2023-03-14T13:17:51.224Z,8
2023-03-14T13:23:51.155Z,9
2023-03-14T13:29:51.148Z,12
2023-03-14T13:35:51.218Z,12
2023-03-14T13:41:51.141Z,10
2023-03-14T13:47:51.133Z,11
2023-03-14T13:53:51.290Z,8
2023-03-14T13:59:51.129Z,7
2023-03-14T14:05:51.165Z,7
2023-03-14T14:12:07.469Z,9
2023-03-14T14:17:51.166Z,8
2023-03-14T14:23:51.132Z,6
2023-03-14T14:29:51.169Z,7
2023-03-14T14:35:51.192Z,6
2023-03-14T14:41:51.177Z,8
2023-03-14T14:47:51.163Z,7
2023-03-14T14:53:51.140Z,11
2023-03-14T14:59:53.546Z,11
2023-03-14T15:05:51.154Z,12
2023-03-14T15:11:51.138Z,12
2023-03-14T15:17:51.136Z,9
2023-03-14T15:23:51.184Z,13
2023-03-14T15:29:51.159Z,11
2023-03-14T15:35:51.152Z,8
2023-03-14T15:41:51.168Z,13
2023-03-14T15:47:51.132Z,13
2023-03-14T15:53:51.240Z,12
2023-03-14T15:59:51.213Z,15
2023-03-14T16:05:51.134Z,18
2023-03-14T16:11:51.123Z,8
2023-03-14T16:17:51.141Z,12
2023-03-14T16:23:51.119Z,6
2023-03-14T16:29:51.117Z,12
2023-03-14T16:35:51.253Z,9
2023-03-14T16:41:51.124Z,11
2023-03-14T16:47:51.133Z,12
2023-03-14T16:53:51.163Z,12
2023-03-14T16:59:51.124Z,11
2023-03-14T17:05:51.148Z,14
2023-03-14T17:11:51.140Z,13
2023-03-14T17:17:51.121Z,14
2023-03-14T17:23:51.114Z,13
2023-03-14T17:29:51.154Z,12
2023-03-14T17:35:51.167Z,12
2023-03-14T17:41:51.123Z,13
2023-03-14T17:47:51.217Z,12
2023-03-14T17:53:51.109Z,15
2023-03-14T17:59:51.203Z,16
2023-03-14T18:05:51.170Z,14
2023-03-14T18:11:58.833Z,9
2023-03-14T18:17:51.111Z,9
2023-03-14T18:23:51.137Z,8
2023-03-14T18:29:51.128Z,11
2023-03-14T18:35:51.162Z,12
2023-03-14T18:41:51.167Z,7
2023-03-14T18:47:51.223Z,9
2023-03-14T18:53:53.992Z,6
2023-03-14T18:59:51.200Z,9
2023-03-14T19:05:51.112Z,10
2023-03-14T19:11:51.114Z,11
2023-03-14T19:17:51.129Z,9
2023-03-14T19:23:51.095Z,11
2023-03-14T19:29:51.109Z,8
2023-03-14T19:35:51.242Z,13
2023-03-14T19:41:51.102Z,8
2023-03-14T19:47:51.086Z,12
2023-03-14T19:53:51.141Z,9
2023-03-14T19:59:51.098Z,12
2023-03-14T20:05:51.095Z,15
2023-03-14T20:11:51.120Z,12
2023-03-14T20:17:51.113Z,10
2023-03-14T20:23:51.118Z,11
2023-03-14T20:29:51.275Z,8
2023-03-14T20:35:51.182Z,13
2023-03-14T20:41:51.082Z,10
2023-03-14T20:47:51.152Z,9
2023-03-14T20:53:51.167Z,10
2023-03-14T20:59:51.107Z,13
2023-03-14T21:05:51.152Z,9
2023-03-14T21:11:51.100Z,9
2023-03-14T21:17:51.082Z,10
2023-03-14T21:23:51.113Z,9
2023-03-14T21:29:51.096Z,8
2023-03-14T21:35:51.098Z,9
2023-03-14T21:41:51.094Z,8
2023-03-14T21:47:51.083Z,7
2023-03-14T21:53:51.430Z,7
2023-03-14T21:59:51.085Z,10
2023-03-14T22:05:51.083Z,13
2023-03-14T22:11:51.076Z,9
2023-03-14T22:17:51.081Z,11
2023-03-14T22:23:51.076Z,8
2023-03-14T22:29:51.072Z,10
2023-03-14T22:35:51.242Z,12
2023-03-14T22:41:51.063Z,12
2023-03-14T22:47:51.072Z,9
2023-03-14T22:53:51.077Z,13
2023-03-14T22:59:51.097Z,9
2023-03-14T23:05:51.071Z,9
2023-03-14T23:11:51.097Z,12
2023-03-14T23:17:51.134Z,10
2023-03-14T23:23:51.075Z,11
2023-03-14T23:29:51.149Z,11
2023-03-14T23:35:51.126Z,9
2023-03-14T23:41:51.064Z,7
2023-03-14T23:47:51.105Z,11
2023-03-14T23:53:51.075Z,13
2023-03-14T23:59:51.078Z,13
